LLSD

Sde Dov Airport

Tel Aviv, Israel
TAF LLSD 182315Z 1900/1924 09005KT CAVOK BECMG 1908/1910 36012KT BECMG 1915/1917 04006KT TX17/1911Z TN07/1904Z
Issued Valid From Valid To
Jan-18 @ 23:15 UTC
(4 hours ago)
Jan-19 @ 00:00 UTC
(3 hours ago)
Jan-20 @ 00:00 UTC
(in 21 hours)
Jan-19 @ 00:00 to Jan-19 @ 08:00
TAF LLSD 182315Z 1900/1924 09005KT CAVOK
Wind Visibility Clouds Conditions
90° at 5 knots 10,000+ meters
  • No significant clouds
Becoming Jan-19 @ 08:00 to Jan-19 @ 15:00
BECMG 1908/1910 36012KT
Wind Visibility Clouds Conditions
360° at 12 knots 10,000+ meters
  • No significant clouds
Becoming Jan-19 @ 15:00 to Jan-20 @ 00:00
BECMG 1915/1917 04006KT TX17/1911Z TN07/1904Z
Wind Visibility Clouds Conditions
40° at 6 knots 10,000+ meters
  • No significant clouds
TAF LLSD 182315Z 1900/1924 09005KT CAVOK BECMG 1908/1910 36012KT BECMG 1915/1917 04006KT TX17/1911Z TN07/1904Z
Issued Jan-18 @ 23:15 UTC
(4 hours ago)
Valid From Jan-19 @ 00:00 UTC
(3 hours ago)
Valid To Jan-20 @ 00:00 UTC
(in 21 hours)
Jan-19 @ 00:00 - Jan-19 @ 08:00
Wind Visibility
90° at 5 knots 10,000+ meters
Clouds
  • No significant clouds
Conditions
Becoming Jan-19 @ 08:00 - Jan-19 @ 15:00
Wind Visibility
360° at 12 knots 10,000+ meters
Clouds
  • No significant clouds
Conditions
Becoming Jan-19 @ 15:00 - Jan-20 @ 00:00
Wind Visibility
40° at 6 knots 10,000+ meters
Clouds
  • No significant clouds
Conditions